Time;durP1;ratioP1;P1;durP2;ratioP2;P2;SDS_P1;SDS_P2;PMS_P1;PMS_P2;Temp;Humidity;BMP_temperature;BMP_pressure;BME280_temperature;BME280_humidity;BME280_pressure;Samples;Min_cycle;Max_cycle;Signal;HPM_P1;HPM_P2
2022/01/18 00:01:12;;;;;;;;;;;2.60;93.20;;;;;;5072824;28;19912;-86
2022/01/18 00:03:38;;;;;;;;;;;2.80;93.20;;;;;;5072893;28;20381;-86
2022/01/18 00:06:03;;;;;;;;;;;2.80;92.80;;;;;;5089785;28;19912;-86
2022/01/18 00:08:29;;;;;;;;;;;2.60;92.50;;;;;;5092928;28;19959;-86
2022/01/18 00:10:55;;;;;;;;;;;2.40;92.10;;;;;;5074917;28;19920;-86
2022/01/18 00:18:30;;;;;;;;;;;1.80;91.10;;;;;;5072744;28;19913;-85
2022/01/18 00:23:37;;;;;;;;;;;1.70;92.30;;;;;;5091143;28;19908;-86
2022/01/18 00:26:04;;;;;;;;;;;1.80;92.20;;;;;;5072620;28;19908;-86
2022/01/18 00:28:30;;;;;;;;;;;2.00;92.30;;;;;;5074707;28;19912;-86
2022/01/18 00:39:12;;;;;;;;;;;1.70;91.50;;;;;;5095661;28;19908;-86
2022/01/18 00:41:38;;;;;;;;;;;1.50;91.30;;;;;;5096206;28;20034;-86
2022/01/18 00:44:05;;;;;;;;;;;1.40;91.10;;;;;;5096339;28;19916;-85
2022/01/18 00:46:30;;;;;;;;;;;1.20;90.70;;;;;;5095832;28;19916;-86
2022/01/18 00:48:59;;;;;;;;;;;1.30;91.30;;;;;;5077109;28;19909;-85
2022/01/18 00:51:25;;;;;;;;;;;1.30;91.80;;;;;;5076027;28;19915;-85
2022/01/18 00:53:51;;;;;;;;;;;1.40;91.60;;;;;;5076006;28;19912;-86
2022/01/18 00:56:23;;;;;;;;;;;1.40;91.50;;;;;;5076228;28;19912;-85
2022/01/18 00:58:50;;;;;;;;;;;1.20;91.40;;;;;;5094765;28;20386;-85
2022/01/18 01:01:16;;;;;;;;;;;1.20;91.90;;;;;;5095987;28;20359;-85
2022/01/18 01:03:42;;;;;;;;;;;1.30;92.10;;;;;;5095982;28;19908;-86
2022/01/18 01:06:08;;;;;;;;;;;1.40;92.30;;;;;;5077591;28;19962;-85
2022/01/18 01:08:34;;;;;;;;;;;1.50;92.60;;;;;;5075676;28;19937;-85
2022/01/18 01:11:00;;;;;;;;;;;1.50;92.60;;;;;;5075679;28;19955;-85
2022/01/18 01:13:27;;;;;;;;;;;1.60;92.90;;;;;;5075611;28;19954;-86
2022/01/18 01:16:25;;;;;;;;;;;1.60;93.20;;;;;;5076189;28;20392;-86
2022/01/18 01:19:12;;;;;;;;;;;1.70;93.20;;;;;;5075531;28;19908;-86
2022/01/18 01:33:06;;;;;;;;;;;1.40;93.70;;;;;;5077199;28;19914;-86
2022/01/18 01:43:31;;;;;;;;;;;1.50;93.90;;;;;;5095268;28;19920;-86
2022/01/18 01:45:58;;;;;;;;;;;1.50;94.00;;;;;;5095114;28;19912;-86
2022/01/18 01:48:24;;;;;;;;;;;1.50;94.10;;;;;;5095080;28;19916;-86
2022/01/18 01:55:47;;;;;;;;;;;1.70;94.30;;;;;;5106458;27;19916;-86
2022/01/18 01:58:13;;;;;;;;;;;2.20;94.40;;;;;;5094884;28;19912;-86
2022/01/18 02:00:52;;;;;;;;;;;2.10;93.80;;;;;;5090903;28;19916;-85
2022/01/18 02:03:18;;;;;;;;;;;2.10;93.20;;;;;;5110887;28;20366;-86
2022/01/18 02:05:44;;;;;;;;;;;2.10;92.90;;;;;;5095742;28;19917;-86
2022/01/18 02:08:10;;;;;;;;;;;1.90;92.20;;;;;;5090450;28;20274;-86
2022/01/18 02:10:36;;;;;;;;;;;1.70;91.60;;;;;;5090458;28;19904;-86
2022/01/18 02:13:02;;;;;;;;;;;1.50;91.50;;;;;;5110039;28;19951;-86
2022/01/18 02:15:28;;;;;;;;;;;1.30;91.60;;;;;;5110882;28;19920;-86
2022/01/18 02:23:23;;;;;;;;;;;1.30;92.00;;;;;;5090827;28;20265;-86
2022/01/18 02:25:49;;;;;;;;;;;1.40;92.30;;;;;;5090434;28;19908;-86
2022/01/18 02:28:15;;;;;;;;;;;1.50;92.20;;;;;;5094161;28;20361;-86
2022/01/18 02:30:41;;;;;;;;;;;1.60;92.00;;;;;;5110401;28;19915;-86
2022/01/18 02:33:07;;;;;;;;;;;1.60;91.80;;;;;;5093197;28;20273;-86
2022/01/18 02:35:33;;;;;;;;;;;1.70;91.90;;;;;;5098681;28;19920;-86
2022/01/18 02:37:59;;;;;;;;;;;1.70;91.80;;;;;;5110187;28;19956;-86
2022/01/18 02:40:24;;;;;;;;;;;1.30;91.60;;;;;;5110266;28;20046;-86
2022/01/18 02:43:00;;;;;;;;;;;1.10;91.60;;;;;;5096311;28;20387;-86
2022/01/18 02:45:26;;;;;;;;;;;0.90;92.70;;;;;;5089734;28;20392;-86
2022/01/18 02:47:52;;;;;;;;;;;0.90;93.10;;;;;;5089773;28;19909;-86
2022/01/18 02:50:18;;;;;;;;;;;0.90;93.60;;;;;;5090766;28;19913;-86
2022/01/18 02:52:43;;;;;;;;;;;1.00;94.00;;;;;;5089658;28;19915;-86
2022/01/18 02:55:09;;;;;;;;;;;1.20;94.10;;;;;;5089378;28;19920;-86
2022/01/18 02:57:43;;;;;;;;;;;1.20;94.20;;;;;;5089804;28;19927;-86
2022/01/18 03:00:25;;;;;;;;;;;1.20;94.30;;;;;;5105838;28;19915;-86
2022/01/18 03:05:34;;;;;;;;;;;1.20;93.90;;;;;;5088518;28;19922;-86
2022/01/18 03:08:00;;;;;;;;;;;1.30;93.70;;;;;;5075834;28;20003;-86
2022/01/18 03:10:25;;;;;;;;;;;1.40;93.30;;;;;;5093945;28;19912;-85
2022/01/18 03:12:51;;;;;;;;;;;1.50;93.00;;;;;;5095992;28;20425;-86
2022/01/18 03:15:16;;;;;;;;;;;1.50;92.80;;;;;;5095898;28;20382;-86
2022/01/18 03:17:42;;;;;;;;;;;1.40;92.30;;;;;;5095934;28;19908;-86
2022/01/18 03:20:11;;;;;;;;;;;1.30;92.50;;;;;;5094339;28;19998;-86
2022/01/18 03:22:37;;;;;;;;;;;1.30;92.50;;;;;;5095831;28;19958;-87
2022/01/18 03:25:24;;;;;;;;;;;1.30;92.30;;;;;;5095748;28;19908;-86
2022/01/18 03:28:07;;;;;;;;;;;1.40;92.20;;;;;;5095482;28;20093;-87
2022/01/18 03:30:33;;;;;;;;;;;1.50;91.70;;;;;;5076258;28;19999;-86
2022/01/18 03:33:00;;;;;;;;;;;1.70;91.20;;;;;;5075645;28;19909;-86
2022/01/18 03:35:26;;;;;;;;;;;1.80;90.30;;;;;;5091407;28;19920;-86
2022/01/18 03:37:52;;;;;;;;;;;1.80;90.10;;;;;;5095523;28;19914;-86
2022/01/18 03:40:17;;;;;;;;;;;1.90;90.20;;;;;;5078379;28;19919;-86
2022/01/18 03:42:45;;;;;;;;;;;2.00;90.20;;;;;;5075189;28;20434;-87
2022/01/18 03:45:19;;;;;;;;;;;2.00;90.00;;;;;;5075153;28;19915;-86
2022/01/18 03:47:45;;;;;;;;;;;2.10;89.80;;;;;;5075148;28;19913;-87
2022/01/18 03:50:12;;;;;;;;;;;2.10;89.30;;;;;;5090337;28;19912;-87
2022/01/18 03:52:39;;;;;;;;;;;1.80;88.30;;;;;;5095239;28;20330;-87
2022/01/18 03:55:05;;;;;;;;;;;1.50;88.30;;;;;;5093698;28;19927;-86
2022/01/18 03:57:31;;;;;;;;;;;1.30;89.60;;;;;;5085915;28;19917;-86
2022/01/18 03:59:56;;;;;;;;;;;1.30;90.40;;;;;;5074952;28;19976;-87
2022/01/18 04:02:22;;;;;;;;;;;1.30;90.40;;;;;;5074889;28;19979;-87
2022/01/18 04:04:47;;;;;;;;;;;1.30;90.40;;;;;;5075886;28;19916;-87
2022/01/18 04:07:13;;;;;;;;;;;1.30;90.60;;;;;;5073551;28;20305;-86
2022/01/18 04:09:39;;;;;;;;;;;1.20;90.80;;;;;;5073399;28;20308;-86
2022/01/18 04:12:04;;;;;;;;;;;1.20;91.00;;;;;;5074702;28;19908;-86
2022/01/18 04:14:30;;;;;;;;;;;1.20;91.20;;;;;;5081839;28;20192;-86
2022/01/18 04:27:46;;;;;;;;;;;1.50;91.00;;;;;;5094530;28;19915;-86
2022/01/18 04:30:12;;;;;;;;;;;1.50;91.00;;;;;;5094555;28;19908;-87
2022/01/18 04:32:38;;;;;;;;;;;1.50;90.20;;;;;;5094480;28;19934;-86
2022/01/18 04:35:03;;;;;;;;;;;1.20;89.60;;;;;;5092630;28;19963;-86
2022/01/18 04:37:29;;;;;;;;;;;1.10;90.40;;;;;;5094373;28;19908;-86
2022/01/18 04:39:55;;;;;;;;;;;1.10;91.00;;;;;;5084045;28;19958;-86
2022/01/18 04:42:57;;;;;;;;;;;1.00;91.10;;;;;;5074021;28;19909;-86
2022/01/18 04:50:47;;;;;;;;;;;1.10;91.50;;;;;;5078387;28;19919;-86
2022/01/18 04:53:12;;;;;;;;;;;1.20;91.50;;;;;;5073842;28;19909;-86
2022/01/18 04:55:38;;;;;;;;;;;1.40;91.50;;;;;;5074458;28;19934;-86
2022/01/18 04:58:03;;;;;;;;;;;1.50;91.30;;;;;;5093973;28;19912;-86
2022/01/18 05:00:29;;;;;;;;;;;1.60;91.10;;;;;;5094008;28;19908;-86
2022/01/18 05:02:55;;;;;;;;;;;1.60;91.10;;;;;;5093954;28;19908;-86
2022/01/18 05:07:49;;;;;;;;;;;1.70;91.10;;;;;;5073952;28;20398;-86
2022/01/18 05:10:19;;;;;;;;;;;1.50;90.50;;;;;;5073542;28;19951;-86
2022/01/18 05:12:47;;;;;;;;;;;1.40;90.20;;;;;;5087125;28;20301;-86
2022/01/18 05:16:04;;;;;;;;;;;1.40;90.80;;;;;;5093594;28;20381;-87
2022/01/18 05:23:18;;;;;;;;;;;1.50;91.10;;;;;;5089707;28;20359;-86
2022/01/18 05:25:46;;;;;;;;;;;1.50;90.90;;;;;;5073375;28;20381;-86
2022/01/18 05:28:12;;;;;;;;;;;1.60;91.10;;;;;;5073043;28;19909;-86
2022/01/18 05:30:38;;;;;;;;;;;1.70;91.20;;;;;;5082644;28;19909;-87
2022/01/18 05:33:03;;;;;;;;;;;1.70;91.00;;;;;;5088780;28;19931;-86
2022/01/18 05:35:29;;;;;;;;;;;1.70;90.90;;;;;;5081654;28;20006;-87
2022/01/18 05:37:54;;;;;;;;;;;1.70;90.90;;;;;;5093491;28;19908;-87
2022/01/18 05:40:20;;;;;;;;;;;1.60;90.80;;;;;;5086052;28;19987;-87
2022/01/18 05:42:46;;;;;;;;;;;1.50;90.20;;;;;;5073249;28;19919;-86
2022/01/18 05:45:12;;;;;;;;;;;1.10;88.80;;;;;;5073153;28;19908;-86
2022/01/18 05:47:38;;;;;;;;;;;0.70;89.00;;;;;;5073127;28;19951;-87
2022/01/18 05:50:04;;;;;;;;;;;0.50;89.90;;;;;;5074133;28;19909;-87
2022/01/18 05:52:30;;;;;;;;;;;0.40;91.10;;;;;;5072372;28;19913;-87
2022/01/18 05:54:55;;;;;;;;;;;0.40;91.60;;;;;;5072767;28;19928;-87
2022/01/18 05:57:21;;;;;;;;;;;0.30;92.10;;;;;;5084358;28;20319;-87
2022/01/18 05:59:47;;;;;;;;;;;0.40;92.90;;;;;;5081104;28;20312;-87
2022/01/18 06:02:19;;;;;;;;;;;0.50;93.30;;;;;;5075360;28;20370;-87
2022/01/18 06:07:29;;;;;;;;;;;0.60;93.30;;;;;;5076781;28;19919;-87
2022/01/18 06:09:58;;;;;;;;;;;0.70;93.20;;;;;;5082750;28;19912;-86
2022/01/18 06:12:25;;;;;;;;;;;0.70;93.10;;;;;;5083054;28;20001;-86
2022/01/18 06:14:50;;;;;;;;;;;0.70;93.00;;;;;;5073658;28;20011;-86
2022/01/18 06:17:16;;;;;;;;;;;0.70;92.90;;;;;;5071278;28;20382;-86
2022/01/18 06:19:41;;;;;;;;;;;0.80;93.00;;;;;;5070813;28;20007;-86
2022/01/18 06:22:07;;;;;;;;;;;1.00;93.00;;;;;;5076323;28;20003;-86
2022/01/18 06:24:33;;;;;;;;;;;1.00;92.60;;;;;;5073610;28;19908;-86
2022/01/18 06:26:58;;;;;;;;;;;1.00;92.30;;;;;;5071185;28;20007;-86
2022/01/18 06:29:24;;;;;;;;;;;1.00;92.30;;;;;;5071649;28;20401;-86
2022/01/18 06:31:49;;;;;;;;;;;1.00;92.20;;;;;;5066162;28;19912;-85
2022/01/18 06:34:15;;;;;;;;;;;1.00;91.90;;;;;;5074002;28;19916;-85
2022/01/18 06:36:41;;;;;;;;;;;0.90;92.00;;;;;;5082151;28;20315;-86
2022/01/18 06:39:06;;;;;;;;;;;0.80;92.10;;;;;;5061164;28;19944;-86
2022/01/18 06:41:32;;;;;;;;;;;0.70;92.30;;;;;;5065003;28;20378;-85
2022/01/18 06:43:58;;;;;;;;;;;0.70;92.50;;;;;;5061569;28;20271;-86
2022/01/18 06:46:23;;;;;;;;;;;0.60;92.50;;;;;;5076661;28;19912;-85
2022/01/18 06:48:49;;;;;;;;;;;0.40;92.50;;;;;;5072896;28;20020;-85
2022/01/18 06:51:14;;;;;;;;;;;0.40;92.60;;;;;;5073464;28;19936;-86
2022/01/18 06:53:45;;;;;;;;;;;0.40;92.60;;;;;;5068691;28;19935;-86
2022/01/18 06:56:12;;;;;;;;;;;0.40;92.60;;;;;;5071145;28;19920;-86
2022/01/18 06:58:39;;;;;;;;;;;0.40;92.40;;;;;;5065888;28;19913;-86
2022/01/18 07:01:05;;;;;;;;;;;0.50;92.50;;;;;;5068650;28;19912;-86
2022/01/18 07:03:30;;;;;;;;;;;0.70;92.60;;;;;;5068324;28;19913;-86
2022/01/18 07:05:56;;;;;;;;;;;0.80;92.60;;;;;;5069859;28;19958;-86
2022/01/18 07:08:21;;;;;;;;;;;0.90;92.50;;;;;;5072329;28;19958;-86
2022/01/18 07:10:47;;;;;;;;;;;1.00;92.20;;;;;;5072744;28;19963;-86
2022/01/18 07:13:14;;;;;;;;;;;1.10;91.90;;;;;;5070418;28;20015;-86
2022/01/18 07:15:40;;;;;;;;;;;1.20;91.30;;;;;;5084560;28;19916;-85
2022/01/18 07:18:07;;;;;;;;;;;0.90;89.60;;;;;;5073619;28;19916;-85
2022/01/18 07:20:33;;;;;;;;;;;0.70;89.50;;;;;;5074828;28;19920;-85
2022/01/18 07:22:58;;;;;;;;;;;0.80;89.80;;;;;;5076882;28;19978;-85
2022/01/18 07:25:25;;;;;;;;;;;0.80;90.00;;;;;;5075271;28;19913;-85
2022/01/18 07:27:51;;;;;;;;;;;0.60;89.90;;;;;;5075031;28;20289;-85
2022/01/18 07:30:17;;;;;;;;;;;0.60;90.70;;;;;;5073865;28;19909;-85
2022/01/18 07:32:43;;;;;;;;;;;0.70;90.70;;;;;;5075718;28;19916;-85
2022/01/18 07:35:09;;;;;;;;;;;0.70;90.40;;;;;;5073629;28;20003;-85
2022/01/18 07:37:34;;;;;;;;;;;0.80;90.50;;;;;;5075129;28;20339;-85
2022/01/18 07:40:00;;;;;;;;;;;0.80;90.50;;;;;;5074954;28;20016;-85
2022/01/18 07:42:26;;;;;;;;;;;1.00;90.60;;;;;;5075131;28;19915;-87
2022/01/18 07:44:51;;;;;;;;;;;1.20;90.30;;;;;;5092193;28;19920;-87
2022/01/18 07:47:17;;;;;;;;;;;1.40;90.10;;;;;;5075103;28;19908;-87
2022/01/18 07:49:43;;;;;;;;;;;1.30;89.50;;;;;;5074635;28;20276;-87
2022/01/18 07:52:08;;;;;;;;;;;1.30;89.60;;;;;;5074582;28;19917;-87
2022/01/18 07:54:34;;;;;;;;;;;1.50;89.70;;;;;;5077800;28;19920;-87
2022/01/18 07:57:00;;;;;;;;;;;1.70;89.30;;;;;;5072725;28;19920;-87
2022/01/18 07:59:27;;;;;;;;;;;1.90;88.90;;;;;;5068150;28;19967;-87
2022/01/18 08:01:56;;;;;;;;;;;2.00;88.70;;;;;;5062735;28;19913;-87
2022/01/18 08:04:22;;;;;;;;;;;2.00;88.70;;;;;;5062233;28;19966;-87
2022/01/18 08:06:47;;;;;;;;;;;2.10;88.40;;;;;;5061208;28;19916;-86
2022/01/18 08:09:18;;;;;;;;;;;2.10;88.30;;;;;;5065398;28;19920;-87
2022/01/18 08:11:44;;;;;;;;;;;2.10;88.30;;;;;;5064709;28;19921;-87
2022/01/18 08:14:13;;;;;;;;;;;2.10;88.50;;;;;;5062780;28;20070;-87
2022/01/18 08:17:01;;;;;;;;;;;2.20;88.80;;;;;;5058777;28;20350;-87
2022/01/18 08:19:30;;;;;;;;;;;2.30;88.90;;;;;;5060071;28;20007;-87
2022/01/18 08:21:56;;;;;;;;;;;2.30;88.50;;;;;;5069127;28;19943;-87
2022/01/18 08:24:21;;;;;;;;;;;2.40;88.50;;;;;;5064563;28;19947;-87
2022/01/18 08:26:47;;;;;;;;;;;2.40;88.90;;;;;;5062869;28;20011;-87
2022/01/18 08:29:13;;;;;;;;;;;2.40;89.00;;;;;;5063378;28;20358;-87
2022/01/18 08:31:39;;;;;;;;;;;2.50;89.20;;;;;;5066235;28;19916;-87
2022/01/18 08:34:05;;;;;;;;;;;2.50;89.40;;;;;;5064298;28;19962;-87
2022/01/18 08:36:30;;;;;;;;;;;2.60;89.70;;;;;;5072861;28;19913;-87
2022/01/18 08:38:56;;;;;;;;;;;2.70;89.80;;;;;;5056747;28;19995;-87
2022/01/18 08:41:21;;;;;;;;;;;2.80;89.80;;;;;;5067979;28;20050;-87
2022/01/18 08:43:48;;;;;;;;;;;2.90;89.70;;;;;;5067502;28;19917;-87
2022/01/18 08:46:13;;;;;;;;;;;3.00;90.40;;;;;;5069738;28;20370;-87
2022/01/18 08:48:39;;;;;;;;;;;3.10;90.40;;;;;;5068710;28;19922;-87
2022/01/18 08:51:05;;;;;;;;;;;3.30;90.30;;;;;;5060920;28;20369;-87
2022/01/18 08:53:30;;;;;;;;;;;3.50;90.20;;;;;;5066660;28;20435;-87
2022/01/18 08:55:56;;;;;;;;;;;3.70;90.10;;;;;;5058320;28;19916;-87
2022/01/18 08:58:21;;;;;;;;;;;3.80;89.60;;;;;;5063812;28;19913;-87
2022/01/18 09:00:47;;;;;;;;;;;3.90;89.20;;;;;;5066102;28;19927;-87
2022/01/18 09:03:13;;;;;;;;;;;4.20;90.40;;;;;;5066840;28;19913;-87
2022/01/18 09:05:38;;;;;;;;;;;4.30;90.80;;;;;;5070926;28;20387;-87
2022/01/18 09:08:07;;;;;;;;;;;4.40;90.60;;;;;;5063777;28;20274;-87
2022/01/18 09:10:33;;;;;;;;;;;4.70;90.20;;;;;;5064160;28;19913;-87
2022/01/18 09:12:59;;;;;;;;;;;4.90;88.50;;;;;;5061898;28;19970;-87
2022/01/18 09:15:25;;;;;;;;;;;5.00;88.00;;;;;;5069853;28;19916;-87
2022/01/18 09:17:51;;;;;;;;;;;5.20;86.60;;;;;;5071596;28;19995;-87
2022/01/18 09:20:17;;;;;;;;;;;5.30;84.70;;;;;;5053743;28;20367;-87
2022/01/18 09:22:44;;;;;;;;;;;5.40;84.70;;;;;;5065831;28;20393;-87
2022/01/18 09:25:15;;;;;;;;;;;5.50;85.00;;;;;;5058910;28;19982;-87
2022/01/18 09:27:41;;;;;;;;;;;5.70;84.20;;;;;;5064442;28;19948;-87
2022/01/18 09:30:07;;;;;;;;;;;5.80;83.00;;;;;;5060666;28;20352;-87
2022/01/18 09:32:33;;;;;;;;;;;6.00;83.30;;;;;;5061799;28;19944;-87
2022/01/18 09:34:58;;;;;;;;;;;6.10;83.10;;;;;;5065492;28;20369;-88
2022/01/18 09:37:24;;;;;;;;;;;6.30;80.10;;;;;;5066238;28;19913;-87
2022/01/18 09:39:49;;;;;;;;;;;6.60;77.70;;;;;;5064546;28;19995;-87
2022/01/18 09:42:17;;;;;;;;;;;6.80;76.40;;;;;;5071737;28;19913;-87
2022/01/18 09:44:42;;;;;;;;;;;6.90;76.00;;;;;;5058086;28;19936;-87
2022/01/18 09:47:08;;;;;;;;;;;7.00;75.80;;;;;;5065860;28;20377;-87
2022/01/18 09:49:33;;;;;;;;;;;7.10;77.60;;;;;;5063580;28;19955;-87
2022/01/18 09:51:59;;;;;;;;;;;7.30;74.00;;;;;;5055371;28;19916;-87
2022/01/18 09:54:25;;;;;;;;;;;7.40;71.40;;;;;;5088231;22;19931;-87
2022/01/18 09:56:50;;;;;;;;;;;7.40;71.40;;;;;;5090550;28;19919;-87
2022/01/18 09:59:16;;;;;;;;;;;7.50;71.60;;;;;;5088510;28;20427;-87
2022/01/18 10:01:42;;;;;;;;;;;7.70;71.80;;;;;;5088475;28;20412;-87
2022/01/18 10:04:19;;;;;;;;;;;7.90;70.70;;;;;;5087286;28;20023;-87
2022/01/18 10:06:46;;;;;;;;;;;8.00;70.10;;;;;;5093167;28;19912;-87
2022/01/18 10:09:12;;;;;;;;;;;8.20;68.80;;;;;;5079358;28;19936;-87
2022/01/18 10:11:57;;;;;;;;;;;8.30;68.10;;;;;;5070643;28;19970;-87
2022/01/18 10:14:23;;;;;;;;;;;8.30;68.70;;;;;;5068306;28;19922;-87
2022/01/18 10:16:49;;;;;;;;;;;8.40;70.30;;;;;;5072754;28;19916;-87
2022/01/18 10:19:27;;;;;;;;;;;8.60;70.30;;;;;;5075230;28;19913;-88
2022/01/18 10:21:54;;;;;;;;;;;8.80;69.60;;;;;;5068524;28;19913;-87
2022/01/18 10:24:22;;;;;;;;;;;9.00;68.60;;;;;;5070200;28;19916;-88
2022/01/18 10:26:49;;;;;;;;;;;9.10;68.20;;;;;;5068680;28;19912;-87
2022/01/18 10:29:15;;;;;;;;;;;9.40;68.10;;;;;;5071509;28;19919;-87
2022/01/18 10:31:54;;;;;;;;;;;9.60;66.10;;;;;;5070563;28;20336;-87
2022/01/18 10:34:27;;;;;;;;;;;9.70;65.80;;;;;;5078462;28;20279;-88
2022/01/18 10:36:53;;;;;;;;;;;9.80;66.20;;;;;;5073666;28;20019;-87
2022/01/18 10:39:23;;;;;;;;;;;9.90;65.70;;;;;;5072250;28;20011;-87
2022/01/18 10:41:49;;;;;;;;;;;10.00;65.50;;;;;;5065277;28;19924;-87
2022/01/18 10:44:16;;;;;;;;;;;10.20;65.00;;;;;;5069928;28;19920;-87
2022/01/18 10:46:43;;;;;;;;;;;10.40;66.00;;;;;;5064924;28;19919;-87
2022/01/18 10:49:09;;;;;;;;;;;10.40;64.00;;;;;;5065313;28;19921;-87
2022/01/18 10:51:37;;;;;;;;;;;10.60;63.70;;;;;;5070406;28;19917;-88
2022/01/18 10:54:04;;;;;;;;;;;10.60;63.30;;;;;;5069589;28;19939;-88
2022/01/18 10:56:37;;;;;;;;;;;10.80;64.20;;;;;;5080901;28;19916;-88
2022/01/18 10:59:02;;;;;;;;;;;10.90;64.10;;;;;;5067476;28;19959;-88
2022/01/18 11:01:28;;;;;;;;;;;11.10;63.70;;;;;;5070400;28;19967;-88
2022/01/18 11:04:06;;;;;;;;;;;11.30;63.60;;;;;;5070762;28;19919;-88
2022/01/18 11:06:32;;;;;;;;;;;11.40;62.80;;;;;;5068551;28;19913;-88
2022/01/18 11:09:12;;;;;;;;;;;11.70;62.00;;;;;;5069753;28;19912;-87
2022/01/18 11:11:44;;;;;;;;;;;11.70;62.30;;;;;;5069257;28;19917;-87
2022/01/18 11:14:12;;;;;;;;;;;11.90;62.80;;;;;;5068906;28;19920;-87
2022/01/18 11:16:41;;;;;;;;;;;12.00;62.30;;;;;;5073994;28;19944;-87
2022/01/18 11:19:27;;;;;;;;;;;12.10;62.30;;;;;;5076194;28;19962;-87
2022/01/18 11:21:53;;;;;;;;;;;12.20;62.70;;;;;;5075228;28;19912;-87
2022/01/18 11:24:19;;;;;;;;;;;12.40;63.40;;;;;;5083717;28;19935;-88
2022/01/18 11:26:45;;;;;;;;;;;12.60;62.80;;;;;;5080037;28;19913;-88
2022/01/18 11:29:12;;;;;;;;;;;12.80;62.60;;;;;;5080785;28;19920;-88
2022/01/18 11:31:38;;;;;;;;;;;13.00;61.60;;;;;;5071594;28;19948;-88
2022/01/18 11:34:05;;;;;;;;;;;13.10;60.60;;;;;;5069632;28;19924;-88
2022/01/18 11:36:39;;;;;;;;;;;13.10;60.80;;;;;;5074955;28;19913;-88
2022/01/18 11:39:06;;;;;;;;;;;13.30;60.70;;;;;;5075278;28;19909;-88
2022/01/18 11:41:34;;;;;;;;;;;13.40;60.20;;;;;;5075150;28;19916;-88
2022/01/18 11:44:11;;;;;;;;;;;13.40;58.60;;;;;;5075201;28;20006;-88
2022/01/18 11:46:40;;;;;;;;;;;13.50;59.30;;;;;;5075103;28;19912;-87
2022/01/18 11:49:06;;;;;;;;;;;13.70;59.30;;;;;;5075368;28;19908;-87
2022/01/18 11:51:40;;;;;;;;;;;13.80;57.80;;;;;;5073750;28;19916;-87
2022/01/18 11:54:38;;;;;;;;;;;13.90;58.00;;;;;;5074664;28;19920;-88
2022/01/18 11:57:27;;;;;;;;;;;14.00;57.40;;;;;;5053899;28;19951;-88
2022/01/18 11:59:53;;;;;;;;;;;14.50;57.00;;;;;;5073622;28;19908;-88
2022/01/18 12:02:37;;;;;;;;;;;15.30;54.20;;;;;;5074888;28;19958;-88
2022/01/18 12:05:11;;;;;;;;;;;16.10;52.40;;;;;;5074763;28;19970;-88
2022/01/18 12:07:37;;;;;;;;;;;17.30;49.50;;;;;;5073448;28;20255;-88
2022/01/18 12:10:21;;;;;;;;;;;17.90;46.80;;;;;;5073283;28;19918;-88
2022/01/18 12:12:48;;;;;;;;;;;18.50;43.20;;;;;;5074587;28;19992;-88
2022/01/18 12:15:17;;;;;;;;;;;18.80;42.90;;;;;;5074430;28;19912;-88
2022/01/18 12:18:09;;;;;;;;;;;18.80;42.30;;;;;;5074730;28;19991;-88
2022/01/18 12:20:35;;;;;;;;;;;18.30;42.20;;;;;;5050491;28;20281;-88
2022/01/18 12:23:03;;;;;;;;;;;18.10;42.30;;;;;;5073055;28;20011;-88
2022/01/18 12:25:31;;;;;;;;;;;18.30;42.60;;;;;;5073939;28;20021;-88
2022/01/18 12:28:01;;;;;;;;;;;18.50;40.80;;;;;;5074057;28;19962;-88
2022/01/18 12:30:39;;;;;;;;;;;18.80;40.10;;;;;;5066095;28;19913;-88
2022/01/18 12:33:16;;;;;;;;;;;19.10;37.60;;;;;;5068175;28;20370;-88
2022/01/18 12:35:41;;;;;;;;;;;19.40;36.70;;;;;;5066947;28;19943;-88
2022/01/18 12:38:10;;;;;;;;;;;19.30;37.90;;;;;;5065598;28;20402;-88
2022/01/18 12:40:42;;;;;;;;;;;19.40;37.80;;;;;;5066489;28;19917;-88
2022/01/18 12:45:36;;;;;;;;;;;19.50;37.20;;;;;;5060392;28;20349;-88
2022/01/18 12:48:02;;;;;;;;;;;20.00;36.60;;;;;;5064115;28;19960;-88
2022/01/18 12:50:28;;;;;;;;;;;20.00;36.90;;;;;;5064548;28;19942;-88
2022/01/18 12:52:58;;;;;;;;;;;20.10;38.40;;;;;;5061130;28;20429;-88
2022/01/18 12:55:24;;;;;;;;;;;20.10;37.60;;;;;;5057270;28;19928;-88
2022/01/18 12:58:08;;;;;;;;;;;19.50;36.90;;;;;;5058693;28;19916;-88
2022/01/18 13:00:41;;;;;;;;;;;19.30;38.60;;;;;;5067154;28;20004;-88
2022/01/18 13:03:07;;;;;;;;;;;20.10;37.40;;;;;;5067730;28;20415;-88
2022/01/18 13:05:40;;;;;;;;;;;20.70;35.10;;;;;;5062573;28;19912;-89
2022/01/18 13:08:06;;;;;;;;;;;21.20;34.40;;;;;;5064758;28;19912;-89
2022/01/18 13:10:33;;;;;;;;;;;21.60;34.50;;;;;;5064162;28;19931;-88
2022/01/18 13:13:00;;;;;;;;;;;21.80;33.60;;;;;;5063911;28;19971;-89
2022/01/18 13:15:39;;;;;;;;;;;22.10;33.20;;;;;;5061549;28;19917;-89
2022/01/18 13:26:27;;;;;;;;;;;21.40;33.60;;;;;;5064347;28;19958;-89
2022/01/18 13:28:52;;;;;;;;;;;21.00;33.90;;;;;;5065865;28;19919;-89
2022/01/18 13:31:19;;;;;;;;;;;20.60;34.90;;;;;;5063598;28;19920;-89
2022/01/18 13:34:04;;;;;;;;;;;20.10;36.00;;;;;;5073696;28;19913;-89
2022/01/18 13:36:32;;;;;;;;;;;20.40;35.40;;;;;;5068890;28;19920;-90
2022/01/18 13:38:57;;;;;;;;;;;20.90;35.00;;;;;;5071358;28;19921;-90
2022/01/18 13:41:24;;;;;;;;;;;21.80;34.40;;;;;;5073501;28;19912;-90
2022/01/18 13:43:50;;;;;;;;;;;22.60;33.40;;;;;;5070262;28;19916;-90
2022/01/18 13:46:25;;;;;;;;;;;23.50;32.30;;;;;;5069479;28;19966;-90
2022/01/18 13:49:07;;;;;;;;;;;22.50;32.60;;;;;;5068606;28;19912;-90
2022/01/18 13:51:33;;;;;;;;;;;22.30;33.20;;;;;;5066021;28;19913;-89
2022/01/18 13:54:00;;;;;;;;;;;21.80;33.80;;;;;;5070204;28;19944;-89
2022/01/18 13:56:28;;;;;;;;;;;21.30;34.40;;;;;;5065586;28;19917;-89
2022/01/18 13:59:00;;;;;;;;;;;21.20;34.90;;;;;;5071894;28;19921;-89
2022/01/18 14:01:28;;;;;;;;;;;21.30;35.10;;;;;;5068508;28;20394;-89
2022/01/18 14:03:57;;;;;;;;;;;21.10;35.10;;;;;;5068384;28;19931;-89
2022/01/18 14:06:33;;;;;;;;;;;20.80;36.00;;;;;;5071426;28;19913;-90
2022/01/18 14:08:58;;;;;;;;;;;20.70;36.80;;;;;;5070822;28;19920;-90
2022/01/18 14:11:25;;;;;;;;;;;21.30;36.00;;;;;;5066578;28;19912;-90
2022/01/18 14:13:51;;;;;;;;;;;22.00;34.70;;;;;;5072724;28;20344;-90
2022/01/18 14:16:18;;;;;;;;;;;22.30;34.30;;;;;;5067822;28;19920;-90
2022/01/18 14:19:13;;;;;;;;;;;22.20;34.40;;;;;;5072944;28;19912;-89
2022/01/18 14:21:46;;;;;;;;;;;21.80;35.60;;;;;;5047202;28;19952;-90
2022/01/18 14:24:22;;;;;;;;;;;22.00;34.90;;;;;;5066835;28;19962;-90
2022/01/18 14:26:54;;;;;;;;;;;22.40;34.70;;;;;;5074360;28;19920;-90
2022/01/18 14:29:20;;;;;;;;;;;23.20;33.50;;;;;;5068378;28;20408;-90
2022/01/18 14:32:15;;;;;;;;;;;23.50;32.90;;;;;;5072411;28;19916;-90
2022/01/18 14:34:42;;;;;;;;;;;23.60;32.60;;;;;;5055869;28;20347;-89
2022/01/18 14:37:09;;;;;;;;;;;22.80;33.60;;;;;;5068765;28;19920;-89
2022/01/18 14:40:00;;;;;;;;;;;22.00;34.50;;;;;;5069491;28;19912;-89
2022/01/18 14:42:29;;;;;;;;;;;21.20;35.80;;;;;;5069185;28;19935;-89
2022/01/18 14:45:02;;;;;;;;;;;20.60;37.00;;;;;;5064958;28;19921;-89
2022/01/18 14:47:28;;;;;;;;;;;20.10;37.20;;;;;;5063944;28;19920;-88
2022/01/18 14:49:58;;;;;;;;;;;19.80;38.40;;;;;;5067673;28;19938;-90
2022/01/18 14:52:24;;;;;;;;;;;19.50;39.50;;;;;;5069464;28;19920;-88
2022/01/18 14:54:50;;;;;;;;;;;19.60;39.50;;;;;;5069633;28;20073;-88
2022/01/18 14:57:16;;;;;;;;;;;20.30;38.60;;;;;;5065610;28;20330;-88
2022/01/18 14:59:42;;;;;;;;;;;20.60;38.00;;;;;;5067539;28;20394;-89
2022/01/18 15:02:09;;;;;;;;;;;20.70;37.70;;;;;;5068728;28;19913;-89
2022/01/18 15:04:35;;;;;;;;;;;20.30;38.50;;;;;;5069055;28;20369;-89
2022/01/18 15:07:00;;;;;;;;;;;20.50;38.10;;;;;;5079405;28;19913;-88
2022/01/18 15:09:28;;;;;;;;;;;20.30;38.10;;;;;;5070687;28;19947;-88
2022/01/18 15:11:57;;;;;;;;;;;19.60;39.20;;;;;;5071897;28;19948;-87
2022/01/18 15:14:23;;;;;;;;;;;18.90;40.70;;;;;;5073729;28;19922;-88
2022/01/18 15:16:49;;;;;;;;;;;18.40;41.80;;;;;;5073616;28;19913;-88
2022/01/18 15:19:14;;;;;;;;;;;17.80;43.10;;;;;;5070059;28;19913;-89
2022/01/18 15:21:40;;;;;;;;;;;17.30;44.30;;;;;;5066669;28;19916;-89
2022/01/18 15:24:06;;;;;;;;;;;16.80;45.50;;;;;;5070559;28;19927;-89
2022/01/18 15:26:31;;;;;;;;;;;16.80;45.80;;;;;;5070533;28;19912;-89
2022/01/18 15:28:57;;;;;;;;;;;16.60;46.40;;;;;;5069826;28;19913;-89
2022/01/18 15:31:22;;;;;;;;;;;16.40;46.80;;;;;;5070485;28;19919;-89
2022/01/18 15:33:48;;;;;;;;;;;16.30;47.10;;;;;;5068332;28;20374;-89
2022/01/18 15:36:13;;;;;;;;;;;16.10;47.70;;;;;;5070746;28;19931;-89
2022/01/18 15:38:39;;;;;;;;;;;15.90;48.00;;;;;;5070497;28;19920;-89
2022/01/18 15:41:05;;;;;;;;;;;15.60;48.70;;;;;;5068965;28;19913;-89
2022/01/18 15:43:30;;;;;;;;;;;15.30;49.50;;;;;;5068127;28;20269;-89
2022/01/18 15:45:56;;;;;;;;;;;15.00;50.40;;;;;;5068624;28;19966;-88
2022/01/18 15:48:21;;;;;;;;;;;14.20;52.70;;;;;;5072293;28;20309;-88
2022/01/18 15:50:47;;;;;;;;;;;13.40;55.50;;;;;;5075594;28;20014;-88
2022/01/18 15:53:13;;;;;;;;;;;12.90;57.30;;;;;;5071046;28;20011;-88
2022/01/18 15:55:39;;;;;;;;;;;12.40;58.80;;;;;;5068011;28;19935;-88
2022/01/18 15:58:05;;;;;;;;;;;12.00;60.40;;;;;;5072490;28;20007;-87